createdAt,value
2023-04-11T00:02:26.042Z,99827.34
2023-04-11T00:12:28.209Z,99820.31
2023-04-11T00:22:30.574Z,99804.97
2023-04-11T00:32:32.732Z,99835.72
2023-04-11T00:42:34.846Z,99815.38
2023-04-11T00:52:37.226Z,99820.22
2023-04-11T01:02:43.194Z,99820.84
2023-04-11T01:12:46.075Z,99810.31
2023-04-11T01:22:49.361Z,99812.63
2023-04-11T01:32:51.652Z,99820.94
2023-04-11T01:42:54.522Z,99804.03
2023-04-11T01:52:56.700Z,99799.25
2023-04-11T02:02:58.931Z,99789.81
2023-04-11T02:13:01.083Z,99802.06
2023-04-11T02:23:04.493Z,99819.25
2023-04-11T02:33:06.727Z,99822.81
2023-04-11T02:43:08.805Z,99820.84
2023-04-11T02:53:11.296Z,99834.34
2023-04-11T03:03:19.274Z,99848.81
2023-04-11T03:13:23.688Z,99840.94
2023-04-11T03:23:26.153Z,99840.88
2023-04-11T03:33:28.472Z,99841.50
2023-04-11T03:43:30.726Z,99847.47
2023-04-11T03:53:34.166Z,99857.41
2023-04-11T04:03:43.384Z,99864.69
2023-04-11T04:13:49.038Z,99875.63
2023-04-11T04:23:54.220Z,99873.97
2023-04-11T04:34:09.943Z,99884.69
2023-04-11T04:44:16.542Z,99895.41
2023-04-11T04:54:25.904Z,99917.06
2023-04-11T05:04:28.334Z,99909.97
2023-04-11T05:14:33.408Z,99920.78
2023-04-11T05:24:37.139Z,99935.72
2023-04-11T05:34:58.770Z,99954.19
2023-04-11T05:45:13.493Z,99955.88
2023-04-11T05:55:15.757Z,99963.09
2023-04-11T06:05:17.987Z,99974.38
2023-04-11T06:15:21.591Z,99971.75
2023-04-11T06:25:24.738Z,99992.59
2023-04-11T06:35:26.824Z,100018.53
2023-04-11T06:45:29.127Z,100042.78
2023-04-11T06:55:31.201Z,100039.78
2023-04-11T07:05:33.395Z,100049.19
2023-04-11T07:15:35.925Z,100063.94
2023-04-11T07:25:39.169Z,100086.47
2023-04-11T07:35:41.302Z,100102.78
2023-04-11T07:45:43.416Z,100109.34
2023-04-11T07:55:45.770Z,100108.94
2023-04-11T08:05:47.928Z,100116.59
2023-04-11T08:15:50.079Z,100111.00
2023-04-11T08:25:53.510Z,100101.34
2023-04-11T08:35:56.474Z,100107.47
2023-04-11T08:46:05.005Z,100135.22
2023-04-11T08:56:15.117Z,100116.63
2023-04-11T09:06:17.910Z,100137.22
2023-04-11T09:16:21.317Z,100143.09
2023-04-11T09:26:29.441Z,100144.69
2023-04-11T09:36:32.118Z,100137.34
2023-04-11T09:46:34.392Z,100149.72
2023-04-11T09:56:36.661Z,100162.28
2023-04-11T10:06:59.828Z,100150.88
2023-04-11T10:17:24.485Z,100147.97
2023-04-11T10:27:50.840Z,100163.97
2023-04-11T10:37:53.218Z,100148.56
2023-04-11T10:48:01.684Z,100168.81
2023-04-11T10:58:08.434Z,100161.53
2023-04-11T11:08:11.113Z,100175.84
2023-04-11T11:18:56.811Z,100169.66
2023-04-11T11:29:02.075Z,100159.09
2023-04-11T11:39:05.349Z,100189.47
2023-04-11T11:49:08.368Z,100179.72
2023-04-11T11:59:10.684Z,100181.38
2023-04-11T12:09:13.107Z,100192.19
2023-04-11T12:19:15.228Z,100217.63
2023-04-11T12:29:17.328Z,100199.78
2023-04-11T12:39:19.424Z,100191.66
2023-04-11T12:49:21.586Z,100191.50
2023-04-11T12:59:29.248Z,100212.75
2023-04-11T13:09:34.361Z,100188.56
2023-04-11T13:19:36.512Z,100211.19
2023-04-11T13:29:39.999Z,100196.75
2023-04-11T13:39:42.559Z,100207.97
2023-04-11T13:49:44.793Z,100203.63
2023-04-11T13:59:47.517Z,100193.78
2023-04-11T14:09:50.605Z,100196.25
2023-04-11T14:19:52.681Z,100198.53
2023-04-11T14:29:54.869Z,100197.69
2023-04-11T14:39:56.919Z,100198.72
2023-04-11T14:49:59.376Z,100178.22
2023-04-11T15:00:02.859Z,100178.16
2023-04-11T15:10:05.827Z,100181.03
2023-04-11T15:20:10.002Z,100168.72
2023-04-11T15:30:12.223Z,100153.31
2023-04-11T15:40:15.869Z,100160.13
2023-04-11T15:50:17.971Z,100147.75
2023-04-11T16:00:22.384Z,100152.06
2023-04-11T16:10:25.121Z,100151.06
2023-04-11T16:20:27.284Z,100125.91
2023-04-11T16:30:29.443Z,100129.47
2023-04-11T16:40:33.726Z,100125.78
2023-04-11T16:50:36.462Z,100114.50
2023-04-11T17:00:38.608Z,100133.28
2023-04-11T17:10:40.952Z,100123.31
2023-04-11T17:20:43.676Z,100126.03
2023-04-11T17:30:49.187Z,100136.00
2023-04-11T17:40:53.913Z,100127.72
2023-04-11T17:50:59.539Z,100114.22
2023-04-11T18:01:04.060Z,100102.47
2023-04-11T18:11:06.148Z,100117.88
2023-04-11T18:21:08.357Z,100107.44
2023-04-11T18:31:10.931Z,100111.00
2023-04-11T18:41:13.374Z,100113.91
2023-04-11T18:51:15.598Z,100112.97
2023-04-11T19:01:17.908Z,100111.25
2023-04-11T19:11:20.179Z,100105.38
2023-04-11T19:21:22.323Z,100091.00
2023-04-11T19:31:26.384Z,100091.00
2023-04-11T19:41:29.605Z,100079.63
2023-04-11T19:51:31.932Z,100061.06
2023-04-11T20:01:34.091Z,100049.38
2023-04-11T20:11:37.552Z,100038.16
2023-04-11T20:21:39.802Z,100025.25
2023-04-11T20:31:42.993Z,100006.22
2023-04-11T20:41:45.449Z,99991.22
2023-04-11T20:51:47.877Z,99976.59
2023-04-11T21:01:50.219Z,99973.56
2023-04-11T21:11:52.355Z,99953.53
2023-04-11T21:21:54.430Z,99949.19
2023-04-11T21:31:56.750Z,99929.50
2023-04-11T21:42:00.129Z,99910.44
2023-04-11T21:52:02.312Z,99904.75
2023-04-11T22:02:04.599Z,99897.00
2023-04-11T22:12:06.850Z,99881.13
2023-04-11T22:22:08.939Z,99868.03
2023-04-11T22:32:12.119Z,99863.00
2023-04-11T22:42:14.170Z,99843.81
2023-04-11T22:52:19.013Z,99819.25
2023-04-11T23:02:21.222Z,99789.09
2023-04-11T23:12:23.270Z,99763.38
2023-04-11T23:22:26.276Z,99758.31
2023-04-11T23:32:28.393Z,99745.91
2023-04-11T23:42:30.503Z,99713.16
2023-04-11T23:52:32.522Z,99695.34
